»·PEaware :: N412QL KFUL-KSGU

N412QL :: KFUL-KSGU

FLIGHT INFORMATION

Flight Status: Arrived
Operator: Privately registered:
United States
More flights under this callsign
Pilot: Anonymous 18083 (18083)
Aircraft: Unknown
(DA62)
More flights by this aircraft type
Origin: KFUL Fullerton Mun
United States
Destination: KSGU St George Mun
United States
More flights between these airports :: More routes between these airports
Route: ANAHM1 HEC V21
File this flight plan on PilotEdge
Remarks: Sample flight plan
Altitude:
(Current/Filed)
21,000ft
Speed:
(Current/Filed)
150kts
Departed: 12-Feb-19 09:24 PM
Arrived: 12-Feb-19 11:23 PM
Distance/Time
Traveled:
290nm/1:58
Distance/Time
To Go:
Arrived

Flight Plot

Page will automatically refresh every two minutes.

Flight plan parsing failed; only flown route is shown


Map Options




Map Legend


Flown Route
Filed Route
Departure Airport
Arrival Airport
Navaid (VOR, NDB)
Fix

Horizontal Profiles

Position Reports

Time Latitude Longitude Heading Altitude Ground
Speed
12-Feb-19 21:08 33.870573 -117.979330 360 93ft 0kts
12-Feb-19 21:09 33.870573 -117.979330 360 93ft 0kts
12-Feb-19 21:10 33.870573 -117.979330 360 93ft 0kts
12-Feb-19 21:11 33.870573 -117.979330 360 93ft 0kts
12-Feb-19 21:12 33.870573 -117.979330 360 93ft 0kts
12-Feb-19 21:13 33.870573 -117.979330 360 93ft 0kts
12-Feb-19 21:14 33.870573 -117.979330 360 93ft 0kts
12-Feb-19 21:15 33.870573 -117.979330 360 93ft 0kts
12-Feb-19 21:16 33.870573 -117.979330 0 93ft 0kts
12-Feb-19 21:17 33.870595 -117.979330 0 93ft 0kts
12-Feb-19 21:18 33.870595 -117.979330 0 93ft 0kts
12-Feb-19 21:19 33.870595 -117.979330 0 93ft 0kts
12-Feb-19 21:20 33.871522 -117.979266 24 92ft 18kts
12-Feb-19 21:21 33.872556 -117.974938 66 95ft 0kts
12-Feb-19 21:22 33.872935 -117.975107 255 96ft 0kts
12-Feb-19 21:23 33.870346 -117.989489 260 407ft 79kts
12-Feb-19 21:24 33.852406 -118.001994 147 1422ft 100kts
12-Feb-19 21:25 33.828006 -117.974722 130 2213ft 125kts
12-Feb-19 21:26 33.817667 -117.941197 77 3290ft 116kts
12-Feb-19 21:27 33.827671 -117.902590 69 4225ft 125kts
12-Feb-19 21:28 33.837866 -117.861502 74 5231ft 131kts
12-Feb-19 21:29 33.847968 -117.820160 77 6217ft 134kts
12-Feb-19 21:30 33.858535 -117.776823 79 7234ft 136kts
12-Feb-19 21:31 33.869199 -117.732743 78 8252ft 138kts
12-Feb-19 21:32 33.879811 -117.689365 80 9249ft 139kts
12-Feb-19 21:33 33.890650 -117.644653 80 10274ft 139kts
12-Feb-19 21:34 33.901559 -117.599610 80 11228ft 145kts
12-Feb-19 21:35 33.913073 -117.552045 80 12165ft 151kts
12-Feb-19 21:36 33.941674 -117.516133 20 13116ft 156kts
12-Feb-19 21:37 33.980943 -117.492549 19 14058ft 160kts
12-Feb-19 21:38 34.021681 -117.468071 19 14857ft 174kts
12-Feb-19 21:39 34.067468 -117.440531 20 15438ft 189kts
12-Feb-19 21:40 34.114840 -117.412018 20 15979ft 190kts
12-Feb-19 21:41 34.161972 -117.383626 19 16484ft 189kts
12-Feb-19 21:42 34.208986 -117.355277 19 16997ft 188kts
12-Feb-19 21:43 34.255953 -117.326921 20 17479ft 188kts
12-Feb-19 21:44 34.302631 -117.298700 20 17953ft 187kts
12-Feb-19 21:45 34.349239 -117.270482 20 18430ft 187kts
12-Feb-19 21:46 34.395732 -117.242283 19 18915ft 186kts
12-Feb-19 21:47 34.441988 -117.214219 18 19397ft 186kts
12-Feb-19 21:48 34.487947 -117.186294 18 19884ft 184kts
12-Feb-19 21:49 34.533625 -117.158501 18 20377ft 182kts
12-Feb-19 21:50 34.563276 -117.107932 65 20862ft 189kts
12-Feb-19 21:51 34.585122 -117.049040 66 21116ft 201kts
12-Feb-19 21:52 34.608841 -116.984021 66 21121ft 217kts
12-Feb-19 21:53 34.633318 -116.916718 66 21121ft 223kts
12-Feb-19 21:55 34.658475 -116.847395 66 21122ft 225kts
12-Feb-19 21:56 34.683758 -116.777573 66 21121ft 226kts
12-Feb-19 21:57 34.709034 -116.707665 66 21121ft 226kts
12-Feb-19 21:58 34.734224 -116.637752 66 21122ft 226kts
12-Feb-19 21:59 34.759497 -116.567598 67 21122ft 227kts
12-Feb-19 22:00 34.784944 -116.496594 67 21126ft 229kts
12-Feb-19 22:01 34.820019 -116.432993 44 21123ft 228kts
12-Feb-19 22:02 34.863293 -116.376423 43 21118ft 229kts
12-Feb-19 22:03 34.906838 -116.319498 44 21110ft 228kts
12-Feb-19 22:04 34.949882 -116.263117 44 21110ft 227kts
12-Feb-19 22:05 34.992732 -116.206867 43 21127ft 226kts
12-Feb-19 22:06 35.035545 -116.150638 43 21129ft 226kts
12-Feb-19 22:07 35.078220 -116.094465 43 21130ft 226kts
12-Feb-19 22:08 35.120910 -116.038176 43 21126ft 225kts
12-Feb-19 22:09 35.163500 -115.981936 43 21126ft 225kts
12-Feb-19 22:10 35.206022 -115.925689 43 21129ft 225kts
12-Feb-19 22:11 35.248456 -115.869465 43 21126ft 225kts
12-Feb-19 22:12 35.290841 -115.813207 42 21125ft 225kts
12-Feb-19 22:12 35.326272 -115.766110 43 21129ft 225kts
12-Feb-19 22:14 35.375739 -115.700234 42 21166ft 224kts
12-Feb-19 22:15 35.418035 -115.643834 42 21162ft 225kts
12-Feb-19 22:16 35.460432 -115.587183 42 21168ft 225kts
12-Feb-19 22:16 35.495758 -115.539909 43 21167ft 226kts
12-Feb-19 22:17 35.538145 -115.483101 42 21170ft 226kts
12-Feb-19 22:19 35.587633 -115.416653 42 21169ft 226kts
12-Feb-19 22:19 35.622963 -115.369137 42 21171ft 226kts
12-Feb-19 22:20 35.665457 -115.311896 43 21162ft 225kts
12-Feb-19 22:22 35.735787 -115.216923 43 21163ft 224kts
12-Feb-19 22:23 35.791977 -115.140882 42 21164ft 225kts
12-Feb-19 22:24 35.834198 -115.083627 42 21165ft 226kts
12-Feb-19 22:25 35.876465 -115.026206 43 21157ft 226kts
12-Feb-19 22:26 35.918671 -114.968765 43 21157ft 226kts
12-Feb-19 22:27 35.960956 -114.911121 43 21158ft 226kts
12-Feb-19 22:28 36.005394 -114.857035 25 21160ft 220kts
12-Feb-19 22:29 36.057468 -114.817428 22 21159ft 220kts
12-Feb-19 22:30 36.109746 -114.778129 22 21156ft 220kts
12-Feb-19 22:31 36.161893 -114.738840 22 21163ft 219kts
12-Feb-19 22:32 36.213852 -114.699739 22 21166ft 219kts
12-Feb-19 22:33 36.265914 -114.660423 21 21167ft 219kts
12-Feb-19 22:34 36.317768 -114.621273 21 21167ft 219kts
12-Feb-19 22:35 36.369670 -114.581996 21 21168ft 219kts
12-Feb-19 22:36 36.421648 -114.542351 28 21159ft 223kts
12-Feb-19 22:37 36.460915 -114.480123 48 21169ft 230kts
12-Feb-19 22:38 36.499747 -114.415459 48 20798ft 247kts
12-Feb-19 22:39 36.541186 -114.346330 49 20264ft 244kts
12-Feb-19 22:40 36.581027 -114.279822 49 19732ft 236kts
12-Feb-19 22:41 36.619850 -114.214897 49 19219ft 232kts
12-Feb-19 22:42 36.658214 -114.150621 50 18658ft 233kts
12-Feb-19 22:43 36.696639 -114.086129 50 17653ft 229kts
12-Feb-19 22:44 36.734290 -114.022806 51 16182ft 225kts
12-Feb-19 22:45 36.772589 -113.958266 52 14219ft 236kts
12-Feb-19 22:46 36.811562 -113.892461 53 12241ft 235kts
12-Feb-19 22:47 36.843722 -113.830863 67 11993ft 209kts
12-Feb-19 22:48 36.884210 -113.777763 43 12004ft 213kts
12-Feb-19 22:49 36.926102 -113.724868 43 12004ft 214kts
12-Feb-19 22:50 36.963976 -113.666719 50 12005ft 215kts
12-Feb-19 22:51 37.000722 -113.607365 50 12005ft 216kts
12-Feb-19 22:52 37.037556 -113.547851 50 12006ft 216kts
12-Feb-19 22:53 37.074254 -113.488538 50 12006ft 216kts
12-Feb-19 22:54 37.111173 -113.428851 50 12001ft 216kts
12-Feb-19 22:55 37.147823 -113.369575 50 12002ft 215kts
12-Feb-19 22:56 37.184586 -113.310241 51 11995ft 214kts
12-Feb-19 22:57 37.228768 -113.261206 31 11563ft 218kts
12-Feb-19 22:58 37.278160 -113.219018 31 10541ft 208kts
12-Feb-19 22:59 37.325261 -113.182456 31 10299ft 197kts
12-Feb-19 23:00 37.372958 -113.146764 11 10208ft 202kts
12-Feb-19 23:01 37.388282 -113.183749 235 10228ft 144kts
12-Feb-19 23:02 37.368718 -113.226148 235 10201ft 130kts
12-Feb-19 23:03 37.347735 -113.256626 220 10245ft 89kts
12-Feb-19 23:04 37.329940 -113.276675 218 9685ft 83kts
12-Feb-19 23:05 37.312712 -113.296003 219 9166ft 82kts
12-Feb-19 23:06 37.295633 -113.315095 220 8642ft 81kts
12-Feb-19 23:07 37.278876 -113.333792 221 8122ft 81kts
12-Feb-19 23:08 37.262075 -113.350130 215 7880ft 68kts
12-Feb-19 23:09 37.244080 -113.363517 217 7538ft 79kts
12-Feb-19 23:10 37.224207 -113.378076 219 7072ft 85kts
12-Feb-19 23:11 37.203093 -113.393484 220 6564ft 90kts
12-Feb-19 23:12 37.180599 -113.409825 220 6023ft 96kts
12-Feb-19 23:13 37.156709 -113.427136 220 5454ft 102kts
12-Feb-19 23:14 37.132847 -113.444388 219 4888ft 99kts
12-Feb-19 23:15 37.108171 -113.462252 216 4314ft 105kts
12-Feb-19 23:16 37.083927 -113.481686 233 3947ft 91kts
12-Feb-19 23:17 37.065729 -113.503968 233 3952ft 93kts
12-Feb-19 23:18 37.048008 -113.527551 234 4175ft 96kts
12-Feb-19 23:19 37.025717 -113.549307 216 4166ft 104kts
12-Feb-19 23:20 37.011706 -113.525402 64 3523ft 104kts
12-Feb-19 23:21 37.032661 -113.512240 22 2855ft 46kts
12-Feb-19 23:22 37.040342 -113.507844 87 2874ft 18kts
12-Feb-19 23:23 37.038972 -113.504062 201 2861ft 0kts
12-Feb-19 23:24 37.038972 -113.504062 201 2861ft 0kts

Navigation Log

Ident Type
Flight plan parsing failed, navigation log unavailable